Time;durP1;ratioP1;P1;durP2;ratioP2;P2;SDS_P1;SDS_P2;PMS_P1;PMS_P2;Temp;Humidity;BMP_temperature;BMP_pressure;BME280_temperature;BME280_humidity;BME280_pressure;Samples;Min_cycle;Max_cycle;Signal;HPM_P1;HPM_P2
2023/07/07 00:01:10;;;;;;;12.10;4.25;;;;;;;;;;4940553;28;20684;-70
2023/07/07 00:03:35;;;;;;;11.40;4.53;;;;;;;;;;4924543;28;20101;-70
2023/07/07 00:06:01;;;;;;;11.80;4.85;;;;;;;;;;4939655;28;20051;-71
2023/07/07 00:08:27;;;;;;;15.00;4.53;;;;;;;;;;4939487;28;20043;-70
2023/07/07 00:10:53;;;;;;;15.07;5.00;;;;;;;;;;4940065;28;20031;-70
2023/07/07 00:13:18;;;;;;;11.40;4.55;;;;;;;;;;4940759;28;20035;-70
2023/07/07 00:15:47;;;;;;;12.50;4.07;;;;;;;;;;4941881;28;20430;-71
2023/07/07 00:18:14;;;;;;;16.65;5.15;;;;;;;;;;4922771;28;20031;-71
2023/07/07 00:20:39;;;;;;;15.30;4.78;;;;;;;;;;4941261;28;20187;-70
2023/07/07 00:23:04;;;;;;;12.13;5.38;;;;;;;;;;4938920;28;20045;-70
2023/07/07 00:25:32;;;;;;;17.85;4.88;;;;;;;;;;4941115;28;21917;-71
2023/07/07 00:27:59;;;;;;;15.68;5.65;;;;;;;;;;4942696;28;20121;-70
2023/07/07 00:30:25;;;;;;;15.57;5.15;;;;;;;;;;4940260;28;20138;-70
2023/07/07 00:32:50;;;;;;;12.52;4.90;;;;;;;;;;4926100;28;20058;-70
2023/07/07 00:35:15;;;;;;;12.45;4.40;;;;;;;;;;4938879;28;20054;-70
2023/07/07 00:37:42;;;;;;;12.27;4.18;;;;;;;;;;4939644;28;20039;-71
2023/07/07 00:40:08;;;;;;;10.93;4.35;;;;;;;;;;4896386;28;20155;-70
2023/07/07 00:42:33;;;;;;;12.32;4.60;;;;;;;;;;4921977;28;20031;-70
2023/07/07 00:45:08;;;;;;;12.32;4.20;;;;;;;;;;4937589;28;20094;-70
2023/07/07 00:47:35;;;;;;;10.10;4.18;;;;;;;;;;4936890;28;20031;-71
2023/07/07 00:50:03;;;;;;;8.85;3.65;;;;;;;;;;4936817;28;20097;-70
2023/07/07 00:52:28;;;;;;;9.13;3.38;;;;;;;;;;4939185;28;20035;-72
2023/07/07 00:54:54;;;;;;;10.80;6.10;;;;;;;;;;4939025;28;20152;-71
2023/07/07 00:57:19;;;;;;;13.20;6.15;;;;;;;;;;4919377;28;20686;-71
2023/07/07 00:59:45;;;;;;;13.77;6.10;;;;;;;;;;4936754;28;20086;-70
2023/07/07 01:02:13;;;;;;;15.90;6.18;;;;;;;;;;4934241;28;20046;-70
2023/07/07 01:04:39;;;;;;;13.38;5.38;;;;;;;;;;4919067;28;20050;-69
2023/07/07 01:07:08;;;;;;;14.73;5.28;;;;;;;;;;4938386;28;20039;-70
2023/07/07 01:09:33;;;;;;;14.38;6.20;;;;;;;;;;4919771;28;20547;-72
2023/07/07 01:11:59;;;;;;;13.10;5.45;;;;;;;;;;4936052;28;20039;-71
2023/07/07 01:14:25;;;;;;;11.75;5.60;;;;;;;;;;4936012;28;20035;-63
2023/07/07 01:16:54;;;;;;;9.07;4.75;;;;;;;;;;4933967;28;20146;-64
2023/07/07 01:19:25;;;;;;;11.07;4.78;;;;;;;;;;4934605;28;20043;-64
2023/07/07 01:22:03;;;;;;;11.95;4.60;;;;;;;;;;4937959;28;20043;-64
2023/07/07 01:24:41;;;;;;;8.82;4.28;;;;;;;;;;4936235;28;20038;-63
2023/07/07 01:27:26;;;;;;;11.48;4.18;;;;;;;;;;4935316;28;20844;-63
2023/07/07 01:29:56;;;;;;;9.50;4.28;;;;;;;;;;4933265;28;20142;-64
2023/07/07 01:32:31;;;;;;;9.25;4.50;;;;;;;;;;4933720;28;20039;-64
2023/07/07 01:34:57;;;;;;;8.88;4.10;;;;;;;;;;4937626;28;20526;-64
2023/07/07 01:37:22;;;;;;;7.53;4.38;;;;;;;;;;4935651;28;20046;-64
2023/07/07 01:39:48;;;;;;;9.13;4.80;;;;;;;;;;4935008;28;20040;-65
2023/07/07 01:42:22;;;;;;;12.90;5.43;;;;;;;;;;4935294;28;20043;-65
2023/07/07 01:44:59;;;;;;;9.13;4.97;;;;;;;;;;4934428;28;20536;-64
2023/07/07 01:47:32;;;;;;;13.23;6.13;;;;;;;;;;4937635;28;20034;-65
2023/07/07 01:50:01;;;;;;;13.10;5.93;;;;;;;;;;4936755;28;20058;-64
2023/07/07 01:52:30;;;;;;;11.73;5.93;;;;;;;;;;4918717;28;20034;-64
2023/07/07 01:55:01;;;;;;;12.73;5.72;;;;;;;;;;4934559;28;20113;-64
2023/07/07 01:57:27;;;;;;;10.55;6.18;;;;;;;;;;4933503;28;20114;-65
2023/07/07 01:59:53;;;;;;;14.65;6.35;;;;;;;;;;4936314;28;20142;-63
2023/07/07 02:02:18;;;;;;;12.95;6.38;;;;;;;;;;4935266;28;20488;-64
2023/07/07 02:04:43;;;;;;;10.00;5.72;;;;;;;;;;4935202;28;20047;-63
2023/07/07 02:07:09;;;;;;;12.07;6.32;;;;;;;;;;4934933;28;20039;-64
2023/07/07 02:09:36;;;;;;;11.18;5.80;;;;;;;;;;4933922;28;20043;-63
2023/07/07 02:12:06;;;;;;;11.45;6.43;;;;;;;;;;4932131;28;20035;-64
2023/07/07 02:14:32;;;;;;;12.00;6.40;;;;;;;;;;4936302;28;20043;-64
2023/07/07 02:16:57;;;;;;;15.13;6.65;;;;;;;;;;4907284;28;20069;-63
2023/07/07 02:19:22;;;;;;;10.90;6.65;;;;;;;;;;4934072;28;20173;-64
2023/07/07 02:21:48;;;;;;;11.60;6.75;;;;;;;;;;4934485;28;20077;-64
2023/07/07 02:24:13;;;;;;;14.18;6.78;;;;;;;;;;4934953;28;20050;-63
2023/07/07 02:26:38;;;;;;;14.10;6.65;;;;;;;;;;4919267;28;20555;-63
2023/07/07 02:29:04;;;;;;;9.43;5.85;;;;;;;;;;4937776;28;20047;-64
2023/07/07 02:31:29;;;;;;;12.13;6.90;;;;;;;;;;4932756;28;20074;-64
2023/07/07 02:33:54;;;;;;;13.27;7.00;;;;;;;;;;4934633;28;20827;-63
2023/07/07 02:36:24;;;;;;;12.38;7.07;;;;;;;;;;4935302;28;20090;-64
2023/07/07 02:38:50;;;;;;;18.92;7.68;;;;;;;;;;4931828;28;20678;-65
2023/07/07 02:41:15;;;;;;;14.77;7.72;;;;;;;;;;4935016;28;20039;-64
2023/07/07 02:43:40;;;;;;;15.77;7.57;;;;;;;;;;4934233;28;20039;-64
2023/07/07 02:46:06;;;;;;;14.52;8.32;;;;;;;;;;4903519;28;20043;-64
2023/07/07 02:48:33;;;;;;;13.88;7.65;;;;;;;;;;4933447;28;20085;-64
2023/07/07 02:51:00;;;;;;;15.73;8.15;;;;;;;;;;4919003;28;20769;-64
2023/07/07 02:53:26;;;;;;;19.60;9.13;;;;;;;;;;4933907;28;20039;-64
2023/07/07 02:55:52;;;;;;;17.88;9.93;;;;;;;;;;4936472;28;20053;-64
2023/07/07 02:58:17;;;;;;;18.00;10.02;;;;;;;;;;4932492;28;20047;-64
2023/07/07 03:00:43;;;;;;;21.38;10.30;;;;;;;;;;4903703;28;20400;-64
2023/07/07 03:03:08;;;;;;;19.13;10.40;;;;;;;;;;4933157;28;20173;-64
2023/07/07 03:05:33;;;;;;;21.75;10.63;;;;;;;;;;4933244;28;20552;-64
2023/07/07 03:08:00;;;;;;;16.55;10.10;;;;;;;;;;4932843;28;20035;-64
2023/07/07 03:10:30;;;;;;;16.83;9.30;;;;;;;;;;4934955;28;20065;-64
2023/07/07 03:12:55;;;;;;;21.00;10.80;;;;;;;;;;4933537;28;20031;-64
2023/07/07 03:15:20;;;;;;;20.83;12.07;;;;;;;;;;4933479;28;20050;-65
2023/07/07 03:17:48;;;;;;;25.92;13.80;;;;;;;;;;4933152;28;20377;-64
2023/07/07 03:20:14;;;;;;;21.75;12.88;;;;;;;;;;4933743;28;20043;-65
2023/07/07 03:22:39;;;;;;;24.02;13.25;;;;;;;;;;4933980;28;20492;-64
2023/07/07 03:25:05;;;;;;;17.83;11.93;;;;;;;;;;4936704;28;20066;-63
2023/07/07 03:27:30;;;;;;;16.50;10.20;;;;;;;;;;4933038;28;20058;-63
2023/07/07 03:29:55;;;;;;;18.67;11.65;;;;;;;;;;4932248;28;20850;-64
2023/07/07 03:32:21;;;;;;;23.27;12.15;;;;;;;;;;4931256;28;20031;-64
2023/07/07 03:34:49;;;;;;;22.00;12.25;;;;;;;;;;4933720;28;20046;-63
2023/07/07 03:37:19;;;;;;;21.80;11.23;;;;;;;;;;4935306;28;20079;-64
2023/07/07 03:39:47;;;;;;;20.70;11.48;;;;;;;;;;4933532;28;20836;-64
2023/07/07 03:42:12;;;;;;;19.35;11.32;;;;;;;;;;4934601;28;20047;-65
2023/07/07 03:44:37;;;;;;;20.48;11.68;;;;;;;;;;4931180;28;20126;-64
2023/07/07 03:47:03;;;;;;;18.92;11.45;;;;;;;;;;4933493;28;20038;-64
2023/07/07 03:49:28;;;;;;;20.10;11.05;;;;;;;;;;4934884;28;20151;-64
2023/07/07 03:51:53;;;;;;;19.27;10.90;;;;;;;;;;4933841;28;20086;-64
2023/07/07 03:54:19;;;;;;;17.75;10.55;;;;;;;;;;4933131;28;20664;-64
2023/07/07 03:56:45;;;;;;;20.33;10.68;;;;;;;;;;4933763;28;20035;-64
2023/07/07 03:59:10;;;;;;;18.42;10.30;;;;;;;;;;4929706;28;20053;-65
2023/07/07 04:01:36;;;;;;;19.92;10.50;;;;;;;;;;4933491;28;20046;-64
2023/07/07 04:04:01;;;;;;;18.95;9.40;;;;;;;;;;4933378;28;20085;-63
2023/07/07 04:06:26;;;;;;;17.95;9.55;;;;;;;;;;4920109;28;20046;-64
2023/07/07 04:08:52;;;;;;;15.45;9.27;;;;;;;;;;4917865;28;20089;-65
2023/07/07 04:11:22;;;;;;;20.35;9.95;;;;;;;;;;4931968;28;20180;-64
2023/07/07 04:13:48;;;;;;;17.95;9.95;;;;;;;;;;4932584;28;20043;-64
2023/07/07 04:16:21;;;;;;;17.27;9.05;;;;;;;;;;4932992;28;20031;-64
2023/07/07 04:18:46;;;;;;;17.73;8.90;;;;;;;;;;4938087;28;20045;-64
2023/07/07 04:21:13;;;;;;;13.30;8.18;;;;;;;;;;4920287;28;20507;-64
2023/07/07 04:23:39;;;;;;;14.43;7.78;;;;;;;;;;4936201;28;20039;-64
2023/07/07 04:26:05;;;;;;;17.13;8.00;;;;;;;;;;4934481;28;20066;-64
2023/07/07 04:28:31;;;;;;;15.82;7.57;;;;;;;;;;4937440;28;20042;-63
2023/07/07 04:30:58;;;;;;;15.45;8.18;;;;;;;;;;4939905;28;20405;-64
2023/07/07 04:33:23;;;;;;;17.48;8.82;;;;;;;;;;4935535;28;20039;-64
2023/07/07 04:35:53;;;;;;;17.00;8.25;;;;;;;;;;4936465;28;20045;-64
2023/07/07 04:38:19;;;;;;;16.73;7.38;;;;;;;;;;4935322;28;20649;-64
2023/07/07 04:40:44;;;;;;;19.25;7.90;;;;;;;;;;4935248;28;20043;-64
2023/07/07 04:43:09;;;;;;;18.70;8.07;;;;;;;;;;4921464;28;20078;-64
2023/07/07 04:45:35;;;;;;;19.15;6.88;;;;;;;;;;4920638;28;20031;-63
2023/07/07 04:48:00;;;;;;;14.68;7.82;;;;;;;;;;4936227;28;20038;-64
2023/07/07 04:50:25;;;;;;;16.80;7.30;;;;;;;;;;4936767;28;20790;-64
2023/07/07 04:52:51;;;;;;;14.13;6.75;;;;;;;;;;4932875;28;20047;-63
2023/07/07 04:55:16;;;;;;;15.50;7.47;;;;;;;;;;4932616;28;20036;-63
2023/07/07 04:57:41;;;;;;;14.57;6.35;;;;;;;;;;4936614;28;20050;-64
2023/07/07 05:00:08;;;;;;;20.17;8.18;;;;;;;;;;4934904;28;20089;-64
2023/07/07 05:02:35;;;;;;;19.75;9.75;;;;;;;;;;4932736;28;20046;-64
2023/07/07 05:05:01;;;;;;;16.88;8.95;;;;;;;;;;4934231;28;20043;-64
2023/07/07 05:07:28;;;;;;;16.48;8.70;;;;;;;;;;4933496;28;20081;-66
2023/07/07 05:09:54;;;;;;;17.88;8.02;;;;;;;;;;4934167;28;20507;-65
2023/07/07 05:12:19;;;;;;;21.15;7.20;;;;;;;;;;4935771;28;20038;-64
2023/07/07 05:14:44;;;;;;;16.95;7.80;;;;;;;;;;4934493;28;20035;-64
2023/07/07 05:17:10;;;;;;;17.02;8.07;;;;;;;;;;4933040;28;20097;-64
2023/07/07 05:19:35;;;;;;;14.45;8.27;;;;;;;;;;4932997;28;20041;-63
2023/07/07 05:22:00;;;;;;;21.25;10.88;;;;;;;;;;4914316;28;20032;-64
2023/07/07 05:24:28;;;;;;;19.20;10.27;;;;;;;;;;4915043;28;20093;-68
2023/07/07 05:26:53;;;;;;;18.92;9.38;;;;;;;;;;4930736;28;20039;-68
2023/07/07 05:29:20;;;;;;;15.45;7.20;;;;;;;;;;4914617;28;20113;-68
2023/07/07 05:31:45;;;;;;;16.67;7.80;;;;;;;;;;4916736;28;20035;-69
2023/07/07 05:34:13;;;;;;;22.33;8.32;;;;;;;;;;4929699;28;20039;-68
2023/07/07 05:36:38;;;;;;;16.33;7.43;;;;;;;;;;4932480;28;20494;-68
2023/07/07 05:39:06;;;;;;;13.85;7.10;;;;;;;;;;4934798;28;20042;-68
2023/07/07 05:41:31;;;;;;;12.10;6.18;;;;;;;;;;4929924;28;20042;-69
2023/07/07 05:43:57;;;;;;;9.32;5.03;;;;;;;;;;4932636;28;20097;-69
2023/07/07 05:46:22;;;;;;;9.80;5.75;;;;;;;;;;4929607;28;20059;-68
2023/07/07 05:48:47;;;;;;;13.27;5.97;;;;;;;;;;4933247;28;20070;-68
2023/07/07 05:51:16;;;;;;;10.70;5.25;;;;;;;;;;4933699;28;20083;-68
2023/07/07 05:53:43;;;;;;;11.18;5.72;;;;;;;;;;4932923;28;20077;-68
2023/07/07 05:56:15;;;;;;;10.77;5.13;;;;;;;;;;4933684;28;20035;-68
2023/07/07 05:58:40;;;;;;;10.35;4.38;;;;;;;;;;4932952;28;20039;-69
2023/07/07 06:01:05;;;;;;;10.73;4.20;;;;;;;;;;4930920;28;20035;-69
2023/07/07 06:03:31;;;;;;;7.18;3.70;;;;;;;;;;4933176;28;20054;-68
2023/07/07 06:05:57;;;;;;;9.68;4.03;;;;;;;;;;4935570;28;20050;-69
2023/07/07 06:08:22;;;;;;;10.45;3.95;;;;;;;;;;4917816;28;20467;-69
2023/07/07 06:10:48;;;;;;;11.27;3.83;;;;;;;;;;4936972;28;20134;-69
2023/07/07 06:13:17;;;;;;;6.45;3.15;;;;;;;;;;4936314;28;20077;-70
2023/07/07 06:15:42;;;;;;;8.38;3.67;;;;;;;;;;4915977;28;20109;-68
2023/07/07 06:18:07;;;;;;;8.80;3.80;;;;;;;;;;4935052;28;20035;-69
2023/07/07 06:20:33;;;;;;;8.68;3.60;;;;;;;;;;4937102;28;20044;-69
2023/07/07 06:22:58;;;;;;;9.45;4.00;;;;;;;;;;4936012;28;20998;-70
2023/07/07 06:25:24;;;;;;;9.50;3.55;;;;;;;;;;4935947;28;20043;-70
2023/07/07 06:27:49;;;;;;;9.77;3.97;;;;;;;;;;4932523;28;20062;-71
2023/07/07 06:30:14;;;;;;;9.98;3.90;;;;;;;;;;4928297;28;20070;-70
2023/07/07 06:32:40;;;;;;;8.27;3.60;;;;;;;;;;4935211;28;20031;-70
2023/07/07 06:35:08;;;;;;;8.18;3.50;;;;;;;;;;4927741;28;20055;-69
2023/07/07 06:37:33;;;;;;;9.10;3.47;;;;;;;;;;4928980;28;20062;-69
2023/07/07 06:39:58;;;;;;;8.13;3.33;;;;;;;;;;4928341;28;20043;-69
2023/07/07 06:42:24;;;;;;;7.07;3.40;;;;;;;;;;4935274;28;20077;-70
2023/07/07 06:44:49;;;;;;;7.07;3.40;;;;;;;;;;4938078;28;20042;-68
2023/07/07 06:47:15;;;;;;;14.93;3.28;;;;;;;;;;4936735;28;20158;-69
2023/07/07 06:49:41;;;;;;;10.40;3.15;;;;;;;;;;4936987;28;20129;-69
2023/07/07 06:52:06;;;;;;;7.55;2.85;;;;;;;;;;4918229;28;20041;-69
2023/07/07 06:54:32;;;;;;;7.40;3.17;;;;;;;;;;4932940;28;20121;-69
2023/07/07 06:56:57;;;;;;;6.72;2.97;;;;;;;;;;4935884;28;20146;-68
2023/07/07 06:59:22;;;;;;;7.50;2.90;;;;;;;;;;4937608;28;20066;-69
2023/07/07 07:01:48;;;;;;;8.05;2.80;;;;;;;;;;4935959;28;20559;-68
2023/07/07 07:04:13;;;;;;;31.17;4.97;;;;;;;;;;4934691;28;20035;-69
2023/07/07 07:06:41;;;;;;;9.40;3.03;;;;;;;;;;4932970;28;20129;-69
2023/07/07 07:09:06;;;;;;;7.45;2.72;;;;;;;;;;4915724;28;20053;-70
2023/07/07 07:11:33;;;;;;;12.23;3.20;;;;;;;;;;4934537;28;20655;-70
2023/07/07 07:13:59;;;;;;;6.40;3.10;;;;;;;;;;4938697;28;20042;-69
2023/07/07 07:16:24;;;;;;;7.30;3.35;;;;;;;;;;4935235;28;20045;-71
2023/07/07 07:18:49;;;;;;;5.82;2.95;;;;;;;;;;4933583;28;20085;-70
2023/07/07 07:21:15;;;;;;;8.70;2.97;;;;;;;;;;4932779;28;20042;-67
2023/07/07 07:23:41;;;;;;;6.78;2.67;;;;;;;;;;4917400;28;20043;-69
2023/07/07 07:26:06;;;;;;;8.15;2.83;;;;;;;;;;4935725;28;20085;-68
2023/07/07 07:28:32;;;;;;;9.10;3.47;;;;;;;;;;4933718;28;20034;-69
2023/07/07 07:30:57;;;;;;;11.55;3.35;;;;;;;;;;4918093;28;20165;-69
2023/07/07 07:33:22;;;;;;;7.88;2.90;;;;;;;;;;4935152;28;20624;-68
2023/07/07 07:35:48;;;;;;;8.00;3.08;;;;;;;;;;4932854;28;20051;-70
2023/07/07 07:38:14;;;;;;;8.45;2.90;;;;;;;;;;4936402;28;20778;-68
2023/07/07 07:40:39;;;;;;;9.73;2.85;;;;;;;;;;4922099;28;20043;-69
2023/07/07 07:43:05;;;;;;;9.75;2.95;;;;;;;;;;4914252;28;20098;-69
2023/07/07 07:45:31;;;;;;;9.50;3.03;;;;;;;;;;4929382;28;21234;-68
2023/07/07 07:47:58;;;;;;;6.35;2.63;;;;;;;;;;4929324;28;20516;-70
2023/07/07 07:50:28;;;;;;;4.93;2.80;;;;;;;;;;4935199;28;20070;-68
2023/07/07 07:52:56;;;;;;;6.97;2.65;;;;;;;;;;4935718;28;20416;-67
2023/07/07 07:55:23;;;;;;;6.13;2.70;;;;;;;;;;4937596;28;20035;-68
2023/07/07 07:57:51;;;;;;;9.07;2.90;;;;;;;;;;4936644;28;20404;-68
2023/07/07 08:00:19;;;;;;;5.38;2.63;;;;;;;;;;4937509;28;20058;-69
2023/07/07 08:02:45;;;;;;;7.13;3.10;;;;;;;;;;4936075;28;20146;-69
2023/07/07 08:05:11;;;;;;;6.97;2.63;;;;;;;;;;4939458;28;20515;-72
2023/07/07 08:07:38;;;;;;;7.30;3.47;;;;;;;;;;4936865;28;20046;-68
2023/07/07 08:10:04;;;;;;;8.15;4.53;;;;;;;;;;4937557;28;20054;-69
2023/07/07 08:12:29;;;;;;;7.28;3.15;;;;;;;;;;4933949;28;20070;-70
2023/07/07 08:14:54;;;;;;;11.55;3.63;;;;;;;;;;4920238;28;20047;-68
2023/07/07 08:17:20;;;;;;;5.63;2.45;;;;;;;;;;4942223;28;20127;-70
2023/07/07 08:19:46;;;;;;;6.18;2.50;;;;;;;;;;4941793;28;20832;-69
2023/07/07 08:22:19;;;;;;;5.28;2.47;;;;;;;;;;4927302;28;20035;-71
2023/07/07 08:24:48;;;;;;;7.03;2.42;;;;;;;;;;4937050;28;20034;-70
2023/07/07 08:27:17;;;;;;;6.30;2.63;;;;;;;;;;4934529;28;20046;-70
2023/07/07 08:29:42;;;;;;;7.68;2.60;;;;;;;;;;4918745;28;20533;-70
2023/07/07 08:32:10;;;;;;;9.82;2.95;;;;;;;;;;4922529;28;20043;-68
2023/07/07 08:34:35;;;;;;;6.72;2.70;;;;;;;;;;4926476;28;20043;-68
2023/07/07 08:37:01;;;;;;;6.53;2.58;;;;;;;;;;4931524;28;20055;-70
2023/07/07 08:39:29;;;;;;;7.55;3.10;;;;;;;;;;4923877;28;20045;-68
2023/07/07 08:42:02;;;;;;;7.95;2.63;;;;;;;;;;4923525;28;20035;-69
2023/07/07 08:44:30;;;;;;;8.07;3.13;;;;;;;;;;4943792;28;20050;-71
2023/07/07 08:47:13;;;;;;;7.75;2.40;;;;;;;;;;4942398;28;20054;-70
2023/07/07 08:49:58;;;;;;;7.32;2.63;;;;;;;;;;4942631;28;20047;-70
2023/07/07 08:52:32;;;;;;;9.88;2.75;;;;;;;;;;4934934;28;20084;-68
2023/07/07 08:55:06;;;;;;;12.73;2.90;;;;;;;;;;4917351;28;20040;-71
2023/07/07 08:57:35;;;;;;;26.58;4.32;;;;;;;;;;4934823;28;20612;-73
2023/07/07 09:00:03;;;;;;;16.40;2.75;;;;;;;;;;4935986;28;20126;-68
2023/07/07 09:02:34;;;;;;;6.97;2.70;;;;;;;;;;4935714;28;20039;-71
2023/07/07 09:05:05;;;;;;;23.23;4.10;;;;;;;;;;4936508;28;20049;-70
2023/07/07 09:07:46;;;;;;;7.40;2.42;;;;;;;;;;4938615;28;20799;-71
2023/07/07 09:10:29;;;;;;;46.13;6.47;;;;;;;;;;4936164;28;20039;-69
2023/07/07 09:13:01;;;;;;;11.00;2.80;;;;;;;;;;4929058;28;20287;-71
2023/07/07 09:15:31;;;;;;;10.32;2.65;;;;;;;;;;4920629;28;20050;-69
2023/07/07 09:18:00;;;;;;;9.80;2.97;;;;;;;;;;4917711;28;20649;-71
2023/07/07 09:20:27;;;;;;;7.28;3.28;;;;;;;;;;4924036;28;21508;-70
2023/07/07 09:22:55;;;;;;;9.88;2.65;;;;;;;;;;4927274;28;22383;-71
2023/07/07 09:25:35;;;;;;;17.80;3.75;;;;;;;;;;4925517;28;20037;-69
2023/07/07 09:28:01;;;;;;;12.15;4.00;;;;;;;;;;4935518;28;20042;-70
2023/07/07 09:30:27;;;;;;;91.40;8.95;;;;;;;;;;4918023;28;20054;-68
2023/07/07 09:32:54;;;;;;;9.85;3.10;;;;;;;;;;4936547;28;20034;-71
2023/07/07 09:35:20;;;;;;;14.40;3.10;;;;;;;;;;4937650;28;20035;-71
2023/07/07 09:37:52;;;;;;;77.10;7.00;;;;;;;;;;4939498;28;20035;-71
2023/07/07 09:40:19;;;;;;;68.70;7.03;;;;;;;;;;4918181;28;22285;-69
2023/07/07 09:42:48;;;;;;;7.38;2.70;;;;;;;;;;4936372;28;20058;-70
2023/07/07 09:45:23;;;;;;;6.40;2.38;;;;;;;;;;4935525;28;20049;-69
2023/07/07 09:47:50;;;;;;;13.88;3.30;;;;;;;;;;4933327;28;20046;-73
2023/07/07 09:50:26;;;;;;;23.60;3.75;;;;;;;;;;4937045;28;20046;-70
2023/07/07 09:53:08;;;;;;;52.72;5.38;;;;;;;;;;4936453;28;20117;-69
2023/07/07 09:55:36;;;;;;;5.68;2.40;;;;;;;;;;4940508;28;20058;-72
2023/07/07 09:58:13;;;;;;;8.02;2.88;;;;;;;;;;4936194;28;20043;-71
2023/07/07 10:00:40;;;;;;;7.50;2.92;;;;;;;;;;4939992;28;20043;-71
2023/07/07 10:03:15;;;;;;;7.25;2.60;;;;;;;;;;4935727;28;20042;-71
2023/07/07 10:06:01;;;;;;;10.82;3.60;;;;;;;;;;4933725;28;20077;-71
2023/07/07 10:08:26;;;;;;;7.82;3.58;;;;;;;;;;4933847;28;20042;-69
2023/07/07 10:10:56;;;;;;;7.28;2.90;;;;;;;;;;4937644;28;20105;-71
2023/07/07 10:13:21;;;;;;;9.65;2.90;;;;;;;;;;4917958;28;20824;-70
2023/07/07 10:15:53;;;;;;;6.10;2.60;;;;;;;;;;4934185;28;20045;-70
2023/07/07 10:18:23;;;;;;;6.78;2.60;;;;;;;;;;4933128;28;20032;-69
2023/07/07 10:20:49;;;;;;;3.58;2.53;;;;;;;;;;4915621;28;20039;-71
2023/07/07 10:23:15;;;;;;;6.07;2.95;;;;;;;;;;4936259;28;20045;-70
2023/07/07 10:25:43;;;;;;;5.00;2.10;;;;;;;;;;4935111;28;20035;-71
2023/07/07 10:28:13;;;;;;;5.20;2.80;;;;;;;;;;4935366;28;20164;-70
2023/07/07 10:30:41;;;;;;;4.80;2.22;;;;;;;;;;4953268;28;20046;-73
2023/07/07 10:33:11;;;;;;;4.85;2.60;;;;;;;;;;4929918;28;20039;-68
2023/07/07 10:35:36;;;;;;;5.88;2.92;;;;;;;;;;4935462;28;20130;-67
2023/07/07 10:38:05;;;;;;;5.47;2.45;;;;;;;;;;4935314;28;20538;-67
2023/07/07 10:40:33;;;;;;;7.45;2.80;;;;;;;;;;4932918;28;20034;-66
2023/07/07 10:42:58;;;;;;;5.05;2.80;;;;;;;;;;4934447;28;20038;-65
2023/07/07 10:45:24;;;;;;;4.45;2.38;;;;;;;;;;4916741;28;20153;-65
2023/07/07 10:47:50;;;;;;;7.82;2.58;;;;;;;;;;4933502;28;20038;-65
2023/07/07 10:50:16;;;;;;;7.28;2.55;;;;;;;;;;4934990;28;20775;-66
2023/07/07 10:52:55;;;;;;;7.55;3.15;;;;;;;;;;4927591;28;20036;-67
2023/07/07 10:55:20;;;;;;;6.88;4.07;;;;;;;;;;4927298;28;20039;-66
2023/07/07 10:57:45;;;;;;;6.97;3.08;;;;;;;;;;4934717;28;20049;-69
2023/07/07 11:00:19;;;;;;;9.15;2.90;;;;;;;;;;4931207;28;22731;-64
2023/07/07 11:02:45;;;;;;;6.22;2.95;;;;;;;;;;4931936;28;20039;-66
2023/07/07 11:05:25;;;;;;;5.82;2.50;;;;;;;;;;4930821;28;20492;-66
2023/07/07 11:07:59;;;;;;;6.20;2.65;;;;;;;;;;4928916;28;20090;-66
2023/07/07 11:10:24;;;;;;;4.03;2.50;;;;;;;;;;4917728;28;20043;-66
2023/07/07 11:13:01;;;;;;;7.82;2.20;;;;;;;;;;4931931;28;20034;-67
2023/07/07 11:15:32;;;;;;;6.10;1.98;;;;;;;;;;4929936;28;20039;-66
2023/07/07 11:18:16;;;;;;;5.15;2.33;;;;;;;;;;4931793;28;20091;-66
2023/07/07 11:20:43;;;;;;;4.78;2.17;;;;;;;;;;4917230;28;20043;-65
2023/07/07 11:23:24;;;;;;;5.03;2.78;;;;;;;;;;4932170;28;20142;-65
2023/07/07 11:26:05;;;;;;;3.75;2.28;;;;;;;;;;4931093;28;20369;-67
2023/07/07 11:28:48;;;;;;;5.78;2.40;;;;;;;;;;4927752;28;20049;-64
2023/07/07 11:31:38;;;;;;;7.07;3.35;;;;;;;;;;4929149;28;20093;-65
2023/07/07 11:34:23;;;;;;;7.68;2.70;;;;;;;;;;4927105;28;20121;-65
2023/07/07 11:36:49;;;;;;;3.65;2.20;;;;;;;;;;4927841;28;20035;-65
2023/07/07 11:39:33;;;;;;;7.25;2.60;;;;;;;;;;4925828;28;20046;-65
2023/07/07 11:42:17;;;;;;;14.18;3.50;;;;;;;;;;4925781;28;20038;-67
2023/07/07 11:44:44;;;;;;;7.25;2.58;;;;;;;;;;4929445;28;20302;-66
2023/07/07 11:47:09;;;;;;;7.95;2.55;;;;;;;;;;4928487;28;20097;-66
2023/07/07 11:49:53;;;;;;;5.57;2.40;;;;;;;;;;4927284;28;20247;-66
2023/07/07 11:52:21;;;;;;;8.27;2.50;;;;;;;;;;4928443;28;20039;-66
2023/07/07 11:54:52;;;;;;;9.07;3.13;;;;;;;;;;4909545;28;20492;-67
2023/07/07 11:57:20;;;;;;;6.05;2.72;;;;;;;;;;4923555;28;20046;-66
2023/07/07 12:00:05;;;;;;;5.40;2.92;;;;;;;;;;4896934;28;20043;-65
2023/07/07 12:02:51;;;;;;;5.13;3.08;;;;;;;;;;4926094;28;20411;-66
2023/07/07 12:05:24;;;;;;;6.07;2.22;;;;;;;;;;4927812;28;22651;-66
2023/07/07 12:07:51;;;;;;;7.55;2.58;;;;;;;;;;4910224;28;21591;-67
2023/07/07 12:10:18;;;;;;;7.93;2.95;;;;;;;;;;4925438;28;22431;-67
2023/07/07 12:12:54;;;;;;;5.22;2.60;;;;;;;;;;4929681;28;20138;-66
2023/07/07 12:15:24;;;;;;;5.60;2.35;;;;;;;;;;4913420;28;20087;-65
2023/07/07 12:17:52;;;;;;;6.60;2.63;;;;;;;;;;4929465;28;20042;-65
2023/07/07 12:20:29;;;;;;;7.13;3.10;;;;;;;;;;4910471;28;20077;-66
2023/07/07 12:22:55;;;;;;;5.30;2.80;;;;;;;;;;4929769;28;20058;-67
2023/07/07 12:25:25;;;;;;;5.72;2.45;;;;;;;;;;4930661;28;20165;-66
2023/07/07 12:27:53;;;;;;;4.70;2.25;;;;;;;;;;4927656;28;20106;-65
2023/07/07 12:30:24;;;;;;;6.18;2.35;;;;;;;;;;4913561;28;20136;-65
2023/07/07 12:32:50;;;;;;;5.25;2.40;;;;;;;;;;4929688;28;20047;-65
2023/07/07 12:35:17;;;;;;;4.47;2.20;;;;;;;;;;4914383;28;20134;-66
2023/07/07 12:37:43;;;;;;;3.42;2.40;;;;;;;;;;4928249;28;20046;-66
2023/07/07 12:40:08;;;;;;;5.57;2.60;;;;;;;;;;4918883;28;20495;-64
2023/07/07 12:42:34;;;;;;;7.55;2.40;;;;;;;;;;4932300;28;20038;-65
2023/07/07 12:45:09;;;;;;;8.00;2.67;;;;;;;;;;4933142;28;20053;-63
2023/07/07 12:47:40;;;;;;;3.88;2.25;;;;;;;;;;4931779;28;22327;-66
2023/07/07 12:50:28;;;;;;;6.15;2.40;;;;;;;;;;4933553;28;20121;-66
2023/07/07 12:52:57;;;;;;;4.57;2.38;;;;;;;;;;4936968;28;20902;-62
2023/07/07 12:55:24;;;;;;;7.18;2.20;;;;;;;;;;4933726;28;20042;-65
2023/07/07 12:58:05;;;;;;;5.00;2.50;;;;;;;;;;4933529;28;20035;-64
2023/07/07 13:00:39;;;;;;;5.40;2.10;;;;;;;;;;4930772;28;20167;-64
2023/07/07 13:03:17;;;;;;;7.30;2.42;;;;;;;;;;4928855;28;20049;-64
2023/07/07 13:05:43;;;;;;;8.65;2.65;;;;;;;;;;4935295;28;20050;-64
2023/07/07 13:08:09;;;;;;;4.55;2.60;;;;;;;;;;4931031;28;20059;-64
2023/07/07 13:10:42;;;;;;;4.35;2.40;;;;;;;;;;4932921;28;20765;-64
2023/07/07 13:13:37;;;;;;;6.10;2.40;;;;;;;;;;4931732;28;20039;-65
2023/07/07 13:16:03;;;;;;;5.05;2.80;;;;;;;;;;4904317;28;20051;-64
2023/07/07 13:18:31;;;;;;;4.50;2.30;;;;;;;;;;4934325;28;20166;-64
2023/07/07 13:21:01;;;;;;;10.38;2.45;;;;;;;;;;4933747;28;20036;-64
2023/07/07 13:23:27;;;;;;;4.18;2.38;;;;;;;;;;4931627;28;20042;-64
2023/07/07 13:25:52;;;;;;;6.75;2.30;;;;;;;;;;4931317;28;20118;-66
2023/07/07 13:28:21;;;;;;;5.70;2.58;;;;;;;;;;4935668;28;20034;-65
2023/07/07 13:30:51;;;;;;;6.60;2.90;;;;;;;;;;4935087;28;20071;-65
2023/07/07 13:33:20;;;;;;;6.38;2.80;;;;;;;;;;4933857;28;20038;-66
2023/07/07 13:35:47;;;;;;;13.25;2.92;;;;;;;;;;4918592;28;20149;-64
2023/07/07 13:38:20;;;;;;;5.20;2.80;;;;;;;;;;4935757;28;20046;-66
2023/07/07 13:40:46;;;;;;;6.55;2.40;;;;;;;;;;4914548;28;22233;-65
2023/07/07 13:43:23;;;;;;;5.18;2.50;;;;;;;;;;4931291;28;20035;-65
2023/07/07 13:45:48;;;;;;;4.68;2.30;;;;;;;;;;4931242;28;20114;-64
2023/07/07 13:48:20;;;;;;;5.95;2.30;;;;;;;;;;4915252;28;20055;-64
2023/07/07 13:50:45;;;;;;;4.88;2.45;;;;;;;;;;4930998;28;20191;-63
2023/07/07 13:53:12;;;;;;;6.72;2.30;;;;;;;;;;4932241;28;20027;-65
2023/07/07 13:55:44;;;;;;;5.77;2.50;;;;;;;;;;4931156;28;20049;-65
2023/07/07 13:58:14;;;;;;;5.32;2.17;;;;;;;;;;4932628;28;20285;-64
2023/07/07 14:00:39;;;;;;;3.35;2.25;;;;;;;;;;4931762;28;20463;-64
2023/07/07 14:03:09;;;;;;;3.80;2.33;;;;;;;;;;4916653;28;20039;-66
2023/07/07 14:05:35;;;;;;;5.60;2.50;;;;;;;;;;4931762;28;20078;-65
2023/07/07 14:08:07;;;;;;;5.80;2.70;;;;;;;;;;4931216;28;20499;-65
2023/07/07 14:10:36;;;;;;;5.72;2.60;;;;;;;;;;4932864;28;20047;-65
2023/07/07 14:13:22;;;;;;;5.45;2.50;;;;;;;;;;4935488;28;20035;-65
2023/07/07 14:16:01;;;;;;;4.03;2.60;;;;;;;;;;4930562;28;20039;-64
2023/07/07 14:18:31;;;;;;;5.80;2.50;;;;;;;;;;4932050;28;20089;-65
2023/07/07 14:20:59;;;;;;;4.20;2.30;;;;;;;;;;4928775;28;20042;-65
2023/07/07 14:23:24;;;;;;;4.28;2.60;;;;;;;;;;4929555;28;20042;-63
2023/07/07 14:25:53;;;;;;;5.32;2.30;;;;;;;;;;4933025;28;20035;-63
2023/07/07 14:28:20;;;;;;;4.43;2.50;;;;;;;;;;4926554;28;20503;-63
2023/07/07 14:30:48;;;;;;;5.05;2.60;;;;;;;;;;4930986;28;20049;-64
2023/07/07 14:33:13;;;;;;;5.38;2.33;;;;;;;;;;4929691;28;20503;-66
2023/07/07 14:35:40;;;;;;;4.90;2.58;;;;;;;;;;4915700;28;20050;-64
2023/07/07 14:38:21;;;;;;;4.35;2.78;;;;;;;;;;4897585;28;20050;-66
2023/07/07 14:40:49;;;;;;;5.78;2.58;;;;;;;;;;4929039;28;20071;-67
2023/07/07 14:43:25;;;;;;;5.55;2.63;;;;;;;;;;4918403;28;20492;-65